sensor_id;sensor_type;location;lat;lon;timestamp;P1;durP1;ratioP1;P2;durP2;ratioP2
60722;SDS011;46574;52.818;6.516;2022-07-03T00:00:23;2.45;;;2.10;;
60722;SDS011;46574;52.818;6.516;2022-07-03T00:02:49;2.40;;;2.30;;
60722;SDS011;46574;52.818;6.516;2022-07-03T00:05:15;2.88;;;2.60;;
60722;SDS011;46574;52.818;6.516;2022-07-03T00:07:41;2.47;;;2.28;;
60722;SDS011;46574;52.818;6.516;2022-07-03T00:10:06;2.47;;;2.28;;
60722;SDS011;46574;52.818;6.516;2022-07-03T00:12:32;3.17;;;2.78;;
60722;SDS011;46574;52.818;6.516;2022-07-03T00:14:58;3.50;;;3.05;;
60722;SDS011;46574;52.818;6.516;2022-07-03T00:17:24;2.95;;;2.70;;
60722;SDS011;46574;52.818;6.516;2022-07-03T00:19:49;2.75;;;2.55;;
60722;SDS011;46574;52.818;6.516;2022-07-03T00:22:15;3.83;;;3.08;;
60722;SDS011;46574;52.818;6.516;2022-07-03T00:24:48;3.00;;;2.80;;
60722;SDS011;46574;52.818;6.516;2022-07-03T00:27:16;2.88;;;2.60;;
60722;SDS011;46574;52.818;6.516;2022-07-03T00:29:44;2.58;;;2.38;;
60722;SDS011;46574;52.818;6.516;2022-07-03T00:32:11;3.33;;;3.13;;
60722;SDS011;46574;52.818;6.516;2022-07-03T00:34:44;3.17;;;2.90;;
60722;SDS011;46574;52.818;6.516;2022-07-03T00:37:14;3.70;;;3.10;;
60722;SDS011;46574;52.818;6.516;2022-07-03T00:39:40;3.20;;;2.90;;
60722;SDS011;46574;52.818;6.516;2022-07-03T00:42:08;2.95;;;2.75;;
60722;SDS011;46574;52.818;6.516;2022-07-03T00:44:51;2.70;;;2.50;;
60722;SDS011;46574;52.818;6.516;2022-07-03T00:47:20;2.85;;;2.60;;
60722;SDS011;46574;52.818;6.516;2022-07-03T00:49:49;2.90;;;2.70;;
60722;SDS011;46574;52.818;6.516;2022-07-03T00:52:17;3.08;;;2.88;;
60722;SDS011;46574;52.818;6.516;2022-07-03T00:54:53;3.10;;;2.83;;
60722;SDS011;46574;52.818;6.516;2022-07-03T00:57:21;3.00;;;2.80;;
60722;SDS011;46574;52.818;6.516;2022-07-03T00:59:49;3.25;;;3.00;;
60722;SDS011;46574;52.818;6.516;2022-07-03T01:02:22;3.20;;;2.90;;
60722;SDS011;46574;52.818;6.516;2022-07-03T01:16:19;4.00;;;3.40;;
60722;SDS011;46574;52.818;6.516;2022-07-03T01:19:10;3.15;;;2.85;;
60722;SDS011;46574;52.818;6.516;2022-07-03T01:21:38;3.08;;;2.88;;
60722;SDS011;46574;52.818;6.516;2022-07-03T01:26:55;4.03;;;3.72;;
60722;SDS011;46574;52.818;6.516;2022-07-03T01:29:32;3.90;;;3.70;;
60722;SDS011;46574;52.818;6.516;2022-07-03T01:32:13;3.58;;;3.38;;
60722;SDS011;46574;52.818;6.516;2022-07-03T01:34:40;4.82;;;4.43;;
60722;SDS011;46574;52.818;6.516;2022-07-03T01:37:14;3.47;;;3.25;;
60722;SDS011;46574;52.818;6.516;2022-07-03T01:39:43;3.90;;;3.70;;
60722;SDS011;46574;52.818;6.516;2022-07-03T01:42:11;3.60;;;3.30;;
60722;SDS011;46574;52.818;6.516;2022-07-03T01:44:38;3.60;;;3.40;;
60722;SDS011;46574;52.818;6.516;2022-07-03T01:47:05;4.45;;;4.15;;
60722;SDS011;46574;52.818;6.516;2022-07-03T01:49:31;3.72;;;3.42;;
60722;SDS011;46574;52.818;6.516;2022-07-03T01:51:59;3.55;;;3.25;;
60722;SDS011;46574;52.818;6.516;2022-07-03T01:54:27;4.80;;;4.40;;
60722;SDS011;46574;52.818;6.516;2022-07-03T01:56:55;5.93;;;4.82;;
60722;SDS011;46574;52.818;6.516;2022-07-03T01:59:21;4.30;;;3.90;;
60722;SDS011;46574;52.818;6.516;2022-07-03T02:01:51;4.20;;;3.95;;
60722;SDS011;46574;52.818;6.516;2022-07-03T02:04:24;3.83;;;3.58;;
60722;SDS011;46574;52.818;6.516;2022-07-03T02:09:44;4.20;;;3.90;;
60722;SDS011;46574;52.818;6.516;2022-07-03T02:12:14;4.97;;;4.55;;
60722;SDS011;46574;52.818;6.516;2022-07-03T02:17:21;5.00;;;4.55;;
60722;SDS011;46574;52.818;6.516;2022-07-03T02:22:16;4.57;;;4.28;;
60722;SDS011;46574;52.818;6.516;2022-07-03T02:24:44;4.25;;;3.90;;
60722;SDS011;46574;52.818;6.516;2022-07-03T02:27:24;5.30;;;4.90;;
60722;SDS011;46574;52.818;6.516;2022-07-03T02:32:28;6.78;;;6.03;;
60722;SDS011;46574;52.818;6.516;2022-07-03T02:35:07;5.68;;;5.25;;
60722;SDS011;46574;52.818;6.516;2022-07-03T02:37:50;5.22;;;4.88;;
60722;SDS011;46574;52.818;6.516;2022-07-03T02:40:26;6.82;;;6.32;;
60722;SDS011;46574;52.818;6.516;2022-07-03T02:45:38;5.68;;;5.20;;
60722;SDS011;46574;52.818;6.516;2022-07-03T02:48:16;5.40;;;4.85;;
60722;SDS011;46574;52.818;6.516;2022-07-03T02:50:50;6.30;;;5.80;;
60722;SDS011;46574;52.818;6.516;2022-07-03T02:53:38;5.22;;;4.93;;
60722;SDS011;46574;52.818;6.516;2022-07-03T02:56:21;7.85;;;7.30;;
60722;SDS011;46574;52.818;6.516;2022-07-03T02:59:02;7.47;;;6.88;;
60722;SDS011;46574;52.818;6.516;2022-07-03T03:01:41;8.52;;;7.70;;
60722;SDS011;46574;52.818;6.516;2022-07-03T03:04:29;7.38;;;6.88;;
60722;SDS011;46574;52.818;6.516;2022-07-03T03:07:01;6.25;;;5.75;;
60722;SDS011;46574;52.818;6.516;2022-07-03T03:09:40;7.57;;;6.95;;
60722;SDS011;46574;52.818;6.516;2022-07-03T03:12:08;8.68;;;7.55;;
60722;SDS011;46574;52.818;6.516;2022-07-03T03:17:17;8.48;;;7.55;;
60722;SDS011;46574;52.818;6.516;2022-07-03T03:19:50;7.90;;;7.30;;
60722;SDS011;46574;52.818;6.516;2022-07-03T03:25:03;8.75;;;8.05;;
60722;SDS011;46574;52.818;6.516;2022-07-03T03:27:29;8.85;;;8.35;;
60722;SDS011;46574;52.818;6.516;2022-07-03T03:29:55;7.57;;;6.88;;
60722;SDS011;46574;52.818;6.516;2022-07-03T03:32:21;9.70;;;8.90;;
60722;SDS011;46574;52.818;6.516;2022-07-03T03:34:47;8.00;;;7.40;;
60722;SDS011;46574;52.818;6.516;2022-07-03T03:37:14;6.97;;;6.47;;
60722;SDS011;46574;52.818;6.516;2022-07-03T03:39:40;6.88;;;6.38;;
60722;SDS011;46574;52.818;6.516;2022-07-03T03:42:07;8.05;;;7.30;;
60722;SDS011;46574;52.818;6.516;2022-07-03T03:44:33;8.07;;;7.50;;
60722;SDS011;46574;52.818;6.516;2022-07-03T03:46:59;9.15;;;8.55;;
60722;SDS011;46574;52.818;6.516;2022-07-03T03:49:25;7.70;;;7.10;;
60722;SDS011;46574;52.818;6.516;2022-07-03T03:51:51;8.70;;;8.10;;
60722;SDS011;46574;52.818;6.516;2022-07-03T03:54:17;9.07;;;8.30;;
60722;SDS011;46574;52.818;6.516;2022-07-03T03:56:43;9.65;;;8.68;;
60722;SDS011;46574;52.818;6.516;2022-07-03T03:59:09;7.60;;;7.05;;
60722;SDS011;46574;52.818;6.516;2022-07-03T04:01:35;9.80;;;9.10;;
60722;SDS011;46574;52.818;6.516;2022-07-03T04:04:00;9.32;;;8.63;;
60722;SDS011;46574;52.818;6.516;2022-07-03T04:06:26;8.93;;;8.18;;
60722;SDS011;46574;52.818;6.516;2022-07-03T04:08:52;7.95;;;7.35;;
60722;SDS011;46574;52.818;6.516;2022-07-03T04:11:18;10.38;;;9.60;;
60722;SDS011;46574;52.818;6.516;2022-07-03T04:13:43;10.02;;;9.00;;
60722;SDS011;46574;52.818;6.516;2022-07-03T04:16:10;9.15;;;8.45;;
60722;SDS011;46574;52.818;6.516;2022-07-03T04:18:36;9.48;;;8.65;;
60722;SDS011;46574;52.818;6.516;2022-07-03T04:21:02;8.02;;;7.43;;
60722;SDS011;46574;52.818;6.516;2022-07-03T04:23:28;9.98;;;9.10;;
60722;SDS011;46574;52.818;6.516;2022-07-03T04:25:54;8.02;;;7.43;;
60722;SDS011;46574;52.818;6.516;2022-07-03T04:28:20;9.40;;;8.73;;
60722;SDS011;46574;52.818;6.516;2022-07-03T04:30:46;9.55;;;8.88;;
60722;SDS011;46574;52.818;6.516;2022-07-03T04:33:13;8.13;;;7.53;;
60722;SDS011;46574;52.818;6.516;2022-07-03T04:35:38;10.07;;;9.15;;
60722;SDS011;46574;52.818;6.516;2022-07-03T04:38:04;7.63;;;7.10;;
60722;SDS011;46574;52.818;6.516;2022-07-03T04:40:30;9.52;;;8.73;;
60722;SDS011;46574;52.818;6.516;2022-07-03T04:42:55;9.38;;;8.57;;
60722;SDS011;46574;52.818;6.516;2022-07-03T04:45:21;10.20;;;9.40;;
60722;SDS011;46574;52.818;6.516;2022-07-03T04:47:47;8.57;;;7.97;;
60722;SDS011;46574;52.818;6.516;2022-07-03T04:50:12;9.30;;;8.60;;
60722;SDS011;46574;52.818;6.516;2022-07-03T04:52:38;9.80;;;9.07;;
60722;SDS011;46574;52.818;6.516;2022-07-03T04:55:04;8.65;;;7.97;;
60722;SDS011;46574;52.818;6.516;2022-07-03T04:57:30;7.00;;;6.50;;
60722;SDS011;46574;52.818;6.516;2022-07-03T04:59:55;8.50;;;7.88;;
60722;SDS011;46574;52.818;6.516;2022-07-03T05:02:21;8.10;;;7.60;;
60722;SDS011;46574;52.818;6.516;2022-07-03T05:04:47;8.07;;;7.47;;
60722;SDS011;46574;52.818;6.516;2022-07-03T05:07:12;7.80;;;7.20;;
60722;SDS011;46574;52.818;6.516;2022-07-03T05:09:38;7.93;;;7.22;;
60722;SDS011;46574;52.818;6.516;2022-07-03T05:12:03;9.40;;;8.73;;
60722;SDS011;46574;52.818;6.516;2022-07-03T05:14:30;10.65;;;9.73;;
60722;SDS011;46574;52.818;6.516;2022-07-03T05:16:55;8.95;;;8.25;;
60722;SDS011;46574;52.818;6.516;2022-07-03T05:19:21;10.10;;;9.30;;
60722;SDS011;46574;52.818;6.516;2022-07-03T05:21:46;8.77;;;8.15;;
60722;SDS011;46574;52.818;6.516;2022-07-03T05:24:12;7.95;;;7.28;;
60722;SDS011;46574;52.818;6.516;2022-07-03T05:26:38;10.38;;;9.57;;
60722;SDS011;46574;52.818;6.516;2022-07-03T05:29:04;8.43;;;7.78;;
60722;SDS011;46574;52.818;6.516;2022-07-03T05:31:29;8.20;;;7.53;;
60722;SDS011;46574;52.818;6.516;2022-07-03T05:33:55;12.05;;;11.05;;
60722;SDS011;46574;52.818;6.516;2022-07-03T05:36:20;7.75;;;7.15;;
60722;SDS011;46574;52.818;6.516;2022-07-03T05:38:46;10.50;;;9.70;;
60722;SDS011;46574;52.818;6.516;2022-07-03T05:41:30;7.85;;;7.35;;
60722;SDS011;46574;52.818;6.516;2022-07-03T05:43:56;9.10;;;8.48;;
60722;SDS011;46574;52.818;6.516;2022-07-03T05:46:22;8.23;;;7.68;;
60722;SDS011;46574;52.818;6.516;2022-07-03T05:48:48;6.82;;;6.43;;
60722;SDS011;46574;52.818;6.516;2022-07-03T05:51:14;9.82;;;9.13;;
60722;SDS011;46574;52.818;6.516;2022-07-03T05:53:39;7.70;;;7.13;;
60722;SDS011;46574;52.818;6.516;2022-07-03T05:56:05;9.18;;;8.38;;
60722;SDS011;46574;52.818;6.516;2022-07-03T05:58:30;7.63;;;7.13;;
60722;SDS011;46574;52.818;6.516;2022-07-03T06:00:56;6.53;;;6.03;;
60722;SDS011;46574;52.818;6.516;2022-07-03T06:03:22;7.97;;;6.75;;
60722;SDS011;46574;52.818;6.516;2022-07-03T06:05:47;7.53;;;6.93;;
60722;SDS011;46574;52.818;6.516;2022-07-03T06:08:13;7.30;;;6.65;;
60722;SDS011;46574;52.818;6.516;2022-07-03T06:10:38;6.00;;;5.50;;
60722;SDS011;46574;52.818;6.516;2022-07-03T06:13:04;5.78;;;5.35;;
60722;SDS011;46574;52.818;6.516;2022-07-03T06:15:30;5.32;;;4.85;;
60722;SDS011;46574;52.818;6.516;2022-07-03T06:17:56;4.82;;;4.32;;
60722;SDS011;46574;52.818;6.516;2022-07-03T06:20:22;4.97;;;4.47;;
60722;SDS011;46574;52.818;6.516;2022-07-03T06:22:48;4.72;;;3.70;;
60722;SDS011;46574;52.818;6.516;2022-07-03T06:25:13;3.38;;;3.08;;
60722;SDS011;46574;52.818;6.516;2022-07-03T06:27:39;4.10;;;3.42;;
60722;SDS011;46574;52.818;6.516;2022-07-03T06:30:05;3.40;;;3.10;;
60722;SDS011;46574;52.818;6.516;2022-07-03T06:32:31;2.88;;;2.67;;
60722;SDS011;46574;52.818;6.516;2022-07-03T06:34:57;5.22;;;3.35;;
60722;SDS011;46574;52.818;6.516;2022-07-03T06:37:22;2.72;;;2.53;;
60722;SDS011;46574;52.818;6.516;2022-07-03T06:39:48;2.97;;;2.67;;
60722;SDS011;46574;52.818;6.516;2022-07-03T06:42:14;2.88;;;2.67;;
60722;SDS011;46574;52.818;6.516;2022-07-03T06:44:39;3.20;;;2.60;;
60722;SDS011;46574;52.818;6.516;2022-07-03T06:47:06;3.03;;;2.15;;
60722;SDS011;46574;52.818;6.516;2022-07-03T06:49:32;2.85;;;1.80;;
60722;SDS011;46574;52.818;6.516;2022-07-03T06:51:58;3.63;;;2.10;;
60722;SDS011;46574;52.818;6.516;2022-07-03T06:54:24;2.65;;;1.88;;
60722;SDS011;46574;52.818;6.516;2022-07-03T06:56:50;3.35;;;2.00;;
60722;SDS011;46574;52.818;6.516;2022-07-03T06:59:15;2.13;;;2.03;;
60722;SDS011;46574;52.818;6.516;2022-07-03T07:01:41;3.08;;;1.90;;
60722;SDS011;46574;52.818;6.516;2022-07-03T07:04:07;2.92;;;2.72;;
60722;SDS011;46574;52.818;6.516;2022-07-03T07:06:33;3.15;;;2.30;;
60722;SDS011;46574;52.818;6.516;2022-07-03T07:08:58;2.58;;;2.35;;
60722;SDS011;46574;52.818;6.516;2022-07-03T07:11:24;3.58;;;2.30;;
60722;SDS011;46574;52.818;6.516;2022-07-03T07:13:50;2.67;;;1.70;;
60722;SDS011;46574;52.818;6.516;2022-07-03T07:16:15;3.92;;;2.10;;
60722;SDS011;46574;52.818;6.516;2022-07-03T07:18:41;3.35;;;2.20;;
60722;SDS011;46574;52.818;6.516;2022-07-03T07:21:08;3.13;;;2.10;;
60722;SDS011;46574;52.818;6.516;2022-07-03T07:23:34;2.40;;;1.70;;
60722;SDS011;46574;52.818;6.516;2022-07-03T07:26:00;2.00;;;1.70;;
60722;SDS011;46574;52.818;6.516;2022-07-03T07:28:26;2.28;;;2.00;;
60722;SDS011;46574;52.818;6.516;2022-07-03T07:30:51;4.43;;;2.10;;
60722;SDS011;46574;52.818;6.516;2022-07-03T07:33:20;3.55;;;1.67;;
60722;SDS011;46574;52.818;6.516;2022-07-03T07:35:46;1.80;;;1.67;;
60722;SDS011;46574;52.818;6.516;2022-07-03T07:38:12;2.50;;;2.10;;
60722;SDS011;46574;52.818;6.516;2022-07-03T07:40:38;3.45;;;2.20;;
60722;SDS011;46574;52.818;6.516;2022-07-03T07:43:03;3.50;;;2.60;;
60722;SDS011;46574;52.818;6.516;2022-07-03T07:45:29;2.78;;;1.98;;
60722;SDS011;46574;52.818;6.516;2022-07-03T07:47:55;2.60;;;1.90;;
60722;SDS011;46574;52.818;6.516;2022-07-03T07:50:20;2.22;;;1.83;;
60722;SDS011;46574;52.818;6.516;2022-07-03T07:52:46;2.38;;;1.42;;
60722;SDS011;46574;52.818;6.516;2022-07-03T07:55:11;1.42;;;1.20;;
60722;SDS011;46574;52.818;6.516;2022-07-03T07:57:38;1.80;;;1.35;;
60722;SDS011;46574;52.818;6.516;2022-07-03T08:00:05;1.77;;;1.20;;
60722;SDS011;46574;52.818;6.516;2022-07-03T08:02:32;3.73;;;1.10;;
60722;SDS011;46574;52.818;6.516;2022-07-03T08:05:16;2.50;;;1.40;;
60722;SDS011;46574;52.818;6.516;2022-07-03T08:08:00;2.05;;;1.30;;
60722;SDS011;46574;52.818;6.516;2022-07-03T08:10:42;2.75;;;1.38;;
60722;SDS011;46574;52.818;6.516;2022-07-03T08:13:12;1.67;;;1.10;;
60722;SDS011;46574;52.818;6.516;2022-07-03T08:15:42;3.65;;;1.52;;
60722;SDS011;46574;52.818;6.516;2022-07-03T08:18:08;2.85;;;1.00;;
60722;SDS011;46574;52.818;6.516;2022-07-03T08:20:35;2.08;;;1.15;;
60722;SDS011;46574;52.818;6.516;2022-07-03T08:23:01;2.55;;;1.00;;
60722;SDS011;46574;52.818;6.516;2022-07-03T08:25:28;2.92;;;1.10;;
60722;SDS011;46574;52.818;6.516;2022-07-03T08:30:23;2.05;;;1.30;;
60722;SDS011;46574;52.818;6.516;2022-07-03T08:32:50;1.75;;;1.10;;
60722;SDS011;46574;52.818;6.516;2022-07-03T08:35:17;2.70;;;1.00;;
60722;SDS011;46574;52.818;6.516;2022-07-03T08:37:43;2.60;;;1.30;;
60722;SDS011;46574;52.818;6.516;2022-07-03T08:40:11;2.55;;;1.20;;
60722;SDS011;46574;52.818;6.516;2022-07-03T08:42:54;2.28;;;1.05;;
60722;SDS011;46574;52.818;6.516;2022-07-03T08:45:22;1.40;;;0.90;;
60722;SDS011;46574;52.818;6.516;2022-07-03T08:47:49;1.70;;;0.90;;
60722;SDS011;46574;52.818;6.516;2022-07-03T08:52:44;2.97;;;1.10;;
60722;SDS011;46574;52.818;6.516;2022-07-03T08:55:11;2.60;;;1.30;;
60722;SDS011;46574;52.818;6.516;2022-07-03T08:57:41;2.95;;;1.52;;
60722;SDS011;46574;52.818;6.516;2022-07-03T09:00:09;2.63;;;1.23;;
60722;SDS011;46574;52.818;6.516;2022-07-03T09:02:38;1.75;;;1.27;;
60722;SDS011;46574;52.818;6.516;2022-07-03T09:05:06;1.33;;;1.23;;
60722;SDS011;46574;52.818;6.516;2022-07-03T09:07:37;2.17;;;1.10;;
60722;SDS011;46574;52.818;6.516;2022-07-03T09:10:05;3.08;;;1.20;;
60722;SDS011;46574;52.818;6.516;2022-07-03T09:12:33;2.40;;;1.30;;
60722;SDS011;46574;52.818;6.516;2022-07-03T09:14:59;1.55;;;0.75;;
60722;SDS011;46574;52.818;6.516;2022-07-03T09:17:29;1.73;;;0.80;;
60722;SDS011;46574;52.818;6.516;2022-07-03T09:19:57;1.40;;;0.80;;
60722;SDS011;46574;52.818;6.516;2022-07-03T09:22:25;2.63;;;0.93;;
60722;SDS011;46574;52.818;6.516;2022-07-03T09:24:53;1.38;;;0.60;;
60722;SDS011;46574;52.818;6.516;2022-07-03T09:27:33;1.13;;;0.82;;
60722;SDS011;46574;52.818;6.516;2022-07-03T09:30:07;1.65;;;0.80;;
60722;SDS011;46574;52.818;6.516;2022-07-03T09:40:25;2.58;;;0.75;;
60722;SDS011;46574;52.818;6.516;2022-07-03T09:43:05;5.50;;;0.93;;
60722;SDS011;46574;52.818;6.516;2022-07-03T09:48:21;1.63;;;0.70;;
60722;SDS011;46574;52.818;6.516;2022-07-03T09:50:47;2.42;;;0.90;;
60722;SDS011;46574;52.818;6.516;2022-07-03T09:53:13;1.83;;;0.80;;
60722;SDS011;46574;52.818;6.516;2022-07-03T09:55:39;1.80;;;1.02;;
60722;SDS011;46574;52.818;6.516;2022-07-03T09:58:04;2.63;;;0.90;;
60722;SDS011;46574;52.818;6.516;2022-07-03T10:00:31;1.48;;;0.77;;
60722;SDS011;46574;52.818;6.516;2022-07-03T10:03:03;1.40;;;0.82;;
60722;SDS011;46574;52.818;6.516;2022-07-03T10:05:31;1.73;;;1.10;;
60722;SDS011;46574;52.818;6.516;2022-07-03T10:07:58;1.88;;;0.90;;
60722;SDS011;46574;52.818;6.516;2022-07-03T10:10:35;1.42;;;1.27;;
60722;SDS011;46574;52.818;6.516;2022-07-03T10:13:03;3.15;;;1.00;;
60722;SDS011;46574;52.818;6.516;2022-07-03T10:15:30;2.25;;;1.00;;
60722;SDS011;46574;52.818;6.516;2022-07-03T10:17:58;0.70;;;0.70;;
60722;SDS011;46574;52.818;6.516;2022-07-03T10:22:52;2.30;;;0.73;;
60722;SDS011;46574;52.818;6.516;2022-07-03T10:25:18;1.98;;;0.80;;
60722;SDS011;46574;52.818;6.516;2022-07-03T10:27:45;2.00;;;0.90;;
60722;SDS011;46574;52.818;6.516;2022-07-03T10:30:14;1.38;;;0.65;;
60722;SDS011;46574;52.818;6.516;2022-07-03T10:32:42;3.60;;;1.20;;
60722;SDS011;46574;52.818;6.516;2022-07-03T10:35:10;1.25;;;0.70;;
60722;SDS011;46574;52.818;6.516;2022-07-03T10:37:46;1.73;;;0.80;;
60722;SDS011;46574;52.818;6.516;2022-07-03T10:40:27;3.25;;;0.80;;
60722;SDS011;46574;52.818;6.516;2022-07-03T10:43:20;0.93;;;0.70;;
60722;SDS011;46574;52.818;6.516;2022-07-03T10:46:09;2.47;;;0.80;;
60722;SDS011;46574;52.818;6.516;2022-07-03T10:51:20;2.05;;;1.52;;
60722;SDS011;46574;52.818;6.516;2022-07-03T10:53:46;0.90;;;0.80;;
60722;SDS011;46574;52.818;6.516;2022-07-03T10:56:12;1.40;;;1.05;;
60722;SDS011;46574;52.818;6.516;2022-07-03T10:58:58;3.05;;;0.93;;
60722;SDS011;46574;52.818;6.516;2022-07-03T11:01:30;1.70;;;0.52;;
60722;SDS011;46574;52.818;6.516;2022-07-03T11:04:02;1.05;;;0.60;;
60722;SDS011;46574;52.818;6.516;2022-07-03T11:09:09;1.73;;;0.80;;
60722;SDS011;46574;52.818;6.516;2022-07-03T11:11:40;0.82;;;0.70;;
60722;SDS011;46574;52.818;6.516;2022-07-03T11:14:24;0.60;;;0.60;;
60722;SDS011;46574;52.818;6.516;2022-07-03T11:19:41;2.92;;;1.00;;
60722;SDS011;46574;52.818;6.516;2022-07-03T11:22:08;1.08;;;0.82;;
60722;SDS011;46574;52.818;6.516;2022-07-03T11:24:43;1.20;;;0.85;;
60722;SDS011;46574;52.818;6.516;2022-07-03T11:29:47;2.25;;;0.95;;
60722;SDS011;46574;52.818;6.516;2022-07-03T11:38:23;1.90;;;0.70;;
60722;SDS011;46574;52.818;6.516;2022-07-03T11:40:51;0.98;;;0.90;;
60722;SDS011;46574;52.818;6.516;2022-07-03T11:43:18;2.13;;;0.90;;
60722;SDS011;46574;52.818;6.516;2022-07-03T11:45:45;1.98;;;1.00;;
60722;SDS011;46574;52.818;6.516;2022-07-03T11:48:12;2.20;;;0.65;;
60722;SDS011;46574;52.818;6.516;2022-07-03T11:50:41;2.75;;;1.00;;
60722;SDS011;46574;52.818;6.516;2022-07-03T11:53:18;1.48;;;0.75;;
60722;SDS011;46574;52.818;6.516;2022-07-03T11:56:06;3.60;;;1.10;;
60722;SDS011;46574;52.818;6.516;2022-07-03T11:58:45;1.95;;;1.02;;
60722;SDS011;46574;52.818;6.516;2022-07-03T12:03:47;2.92;;;1.13;;
60722;SDS011;46574;52.818;6.516;2022-07-03T12:06:14;2.75;;;1.10;;
60722;SDS011;46574;52.818;6.516;2022-07-03T12:08:40;2.30;;;1.33;;
60722;SDS011;46574;52.818;6.516;2022-07-03T12:11:11;3.33;;;1.10;;
60722;SDS011;46574;52.818;6.516;2022-07-03T12:13:38;2.30;;;1.20;;
60722;SDS011;46574;52.818;6.516;2022-07-03T12:18:56;1.70;;;1.00;;
60722;SDS011;46574;52.818;6.516;2022-07-03T12:21:37;1.25;;;0.88;;
60722;SDS011;46574;52.818;6.516;2022-07-03T12:24:09;1.65;;;1.08;;
60722;SDS011;46574;52.818;6.516;2022-07-03T12:26:36;2.35;;;1.08;;
60722;SDS011;46574;52.818;6.516;2022-07-03T12:29:02;2.00;;;0.90;;
60722;SDS011;46574;52.818;6.516;2022-07-03T12:31:30;3.40;;;0.88;;
60722;SDS011;46574;52.818;6.516;2022-07-03T12:33:57;2.35;;;0.68;;
60722;SDS011;46574;52.818;6.516;2022-07-03T12:36:26;2.97;;;1.30;;
60722;SDS011;46574;52.818;6.516;2022-07-03T12:38:53;1.75;;;1.00;;
60722;SDS011;46574;52.818;6.516;2022-07-03T12:41:20;2.87;;;1.03;;
60722;SDS011;46574;52.818;6.516;2022-07-03T12:43:47;1.50;;;0.80;;
60722;SDS011;46574;52.818;6.516;2022-07-03T12:46:14;1.05;;;0.80;;
60722;SDS011;46574;52.818;6.516;2022-07-03T12:48:55;2.45;;;1.05;;
60722;SDS011;46574;52.818;6.516;2022-07-03T12:54:08;3.00;;;1.00;;
60722;SDS011;46574;52.818;6.516;2022-07-03T12:56:39;2.72;;;1.10;;
60722;SDS011;46574;52.818;6.516;2022-07-03T12:59:06;1.42;;;0.90;;
60722;SDS011;46574;52.818;6.516;2022-07-03T13:02:00;2.28;;;1.00;;
60722;SDS011;46574;52.818;6.516;2022-07-03T13:04:31;1.88;;;1.13;;
60722;SDS011;46574;52.818;6.516;2022-07-03T13:07:01;1.88;;;1.13;;
60722;SDS011;46574;52.818;6.516;2022-07-03T13:09:31;1.52;;;0.80;;
60722;SDS011;46574;52.818;6.516;2022-07-03T13:12:02;2.42;;;0.90;;
60722;SDS011;46574;52.818;6.516;2022-07-03T13:14:29;0.85;;;0.60;;
60722;SDS011;46574;52.818;6.516;2022-07-03T13:16:55;1.75;;;0.90;;
60722;SDS011;46574;52.818;6.516;2022-07-03T13:19:23;1.65;;;0.60;;
60722;SDS011;46574;52.818;6.516;2022-07-03T13:21:54;2.22;;;1.13;;
60722;SDS011;46574;52.818;6.516;2022-07-03T13:24:20;2.90;;;0.75;;
60722;SDS011;46574;52.818;6.516;2022-07-03T13:26:47;1.38;;;0.80;;
60722;SDS011;46574;52.818;6.516;2022-07-03T13:29:13;2.30;;;0.90;;
60722;SDS011;46574;52.818;6.516;2022-07-03T13:31:39;1.05;;;0.75;;
60722;SDS011;46574;52.818;6.516;2022-07-03T13:34:05;1.65;;;0.90;;
60722;SDS011;46574;52.818;6.516;2022-07-03T13:36:31;1.13;;;0.90;;
60722;SDS011;46574;52.818;6.516;2022-07-03T13:38:58;5.32;;;2.05;;
60722;SDS011;46574;52.818;6.516;2022-07-03T13:41:24;10.13;;;3.15;;
60722;SDS011;46574;52.818;6.516;2022-07-03T13:43:50;6.50;;;2.92;;
60722;SDS011;46574;52.818;6.516;2022-07-03T13:46:17;4.32;;;2.78;;
60722;SDS011;46574;52.818;6.516;2022-07-03T13:48:44;3.95;;;2.70;;
60722;SDS011;46574;52.818;6.516;2022-07-03T13:51:10;3.58;;;2.60;;
60722;SDS011;46574;52.818;6.516;2022-07-03T13:53:35;5.72;;;3.03;;
60722;SDS011;46574;52.818;6.516;2022-07-03T13:56:02;4.45;;;2.88;;
60722;SDS011;46574;52.818;6.516;2022-07-03T13:58:28;4.10;;;3.08;;
60722;SDS011;46574;52.818;6.516;2022-07-03T14:00:57;3.45;;;3.10;;
60722;SDS011;46574;52.818;6.516;2022-07-03T14:03:24;4.25;;;3.50;;
60722;SDS011;46574;52.818;6.516;2022-07-03T14:05:49;3.25;;;2.95;;
60722;SDS011;46574;52.818;6.516;2022-07-03T14:08:17;3.53;;;3.10;;
60722;SDS011;46574;52.818;6.516;2022-07-03T14:10:46;4.30;;;3.30;;
60722;SDS011;46574;52.818;6.516;2022-07-03T14:13:12;6.10;;;3.42;;
60722;SDS011;46574;52.818;6.516;2022-07-03T14:15:38;3.33;;;2.90;;
60722;SDS011;46574;52.818;6.516;2022-07-03T14:18:04;3.33;;;3.03;;
60722;SDS011;46574;52.818;6.516;2022-07-03T14:20:30;3.17;;;2.88;;
60722;SDS011;46574;52.818;6.516;2022-07-03T14:22:56;5.28;;;3.15;;
60722;SDS011;46574;52.818;6.516;2022-07-03T14:25:21;3.42;;;3.13;;
60722;SDS011;46574;52.818;6.516;2022-07-03T14:27:47;3.15;;;2.85;;
60722;SDS011;46574;52.818;6.516;2022-07-03T14:30:31;4.68;;;4.28;;
60722;SDS011;46574;52.818;6.516;2022-07-03T14:33:15;3.75;;;3.45;;
60722;SDS011;46574;52.818;6.516;2022-07-03T14:35:43;4.28;;;3.40;;
60722;SDS011;46574;52.818;6.516;2022-07-03T14:38:08;2.85;;;2.63;;
60722;SDS011;46574;52.818;6.516;2022-07-03T14:40:34;3.08;;;2.30;;
60722;SDS011;46574;52.818;6.516;2022-07-03T14:43:00;3.28;;;2.40;;
60722;SDS011;46574;52.818;6.516;2022-07-03T14:45:25;5.00;;;2.08;;
60722;SDS011;46574;52.818;6.516;2022-07-03T14:47:51;3.97;;;2.53;;
60722;SDS011;46574;52.818;6.516;2022-07-03T14:50:17;2.75;;;2.17;;
60722;SDS011;46574;52.818;6.516;2022-07-03T14:52:43;3.45;;;2.10;;
60722;SDS011;46574;52.818;6.516;2022-07-03T14:55:09;2.30;;;2.15;;
60722;SDS011;46574;52.818;6.516;2022-07-03T14:57:38;4.35;;;2.88;;
60722;SDS011;46574;52.818;6.516;2022-07-03T15:00:14;4.45;;;3.30;;
60722;SDS011;46574;52.818;6.516;2022-07-03T15:02:45;3.35;;;3.05;;
60722;SDS011;46574;52.818;6.516;2022-07-03T15:05:19;3.42;;;2.20;;
60722;SDS011;46574;52.818;6.516;2022-07-03T15:10:33;2.08;;;1.98;;
60722;SDS011;46574;52.818;6.516;2022-07-03T15:13:00;3.15;;;2.00;;
60722;SDS011;46574;52.818;6.516;2022-07-03T15:15:29;3.37;;;2.20;;
60722;SDS011;46574;52.818;6.516;2022-07-03T15:17:56;2.78;;;1.92;;
60722;SDS011;46574;52.818;6.516;2022-07-03T15:20:25;2.75;;;2.17;;
60722;SDS011;46574;52.818;6.516;2022-07-03T15:22:59;2.97;;;2.40;;
60722;SDS011;46574;52.818;6.516;2022-07-03T15:25:28;2.67;;;2.10;;
60722;SDS011;46574;52.818;6.516;2022-07-03T15:27:55;3.53;;;2.15;;
60722;SDS011;46574;52.818;6.516;2022-07-03T15:30:21;2.13;;;1.95;;
60722;SDS011;46574;52.818;6.516;2022-07-03T15:32:49;2.55;;;1.80;;
60722;SDS011;46574;52.818;6.516;2022-07-03T15:35:16;2.55;;;1.92;;
60722;SDS011;46574;52.818;6.516;2022-07-03T15:40:14;2.72;;;1.92;;
60722;SDS011;46574;52.818;6.516;2022-07-03T15:42:48;2.33;;;2.17;;
60722;SDS011;46574;52.818;6.516;2022-07-03T15:48:03;2.20;;;2.10;;
60722;SDS011;46574;52.818;6.516;2022-07-03T15:53:27;2.88;;;1.80;;
60722;SDS011;46574;52.818;6.516;2022-07-03T15:55:56;2.08;;;1.88;;
60722;SDS011;46574;52.818;6.516;2022-07-03T15:58:32;2.08;;;1.88;;
60722;SDS011;46574;52.818;6.516;2022-07-03T16:01:01;2.42;;;1.60;;
60722;SDS011;46574;52.818;6.516;2022-07-03T16:03:52;2.20;;;1.77;;
60722;SDS011;46574;52.818;6.516;2022-07-03T16:06:36;1.58;;;1.40;;
60722;SDS011;46574;52.818;6.516;2022-07-03T16:09:04;2.47;;;1.63;;
60722;SDS011;46574;52.818;6.516;2022-07-03T16:11:29;2.08;;;1.60;;
60722;SDS011;46574;52.818;6.516;2022-07-03T16:13:55;1.73;;;1.42;;
60722;SDS011;46574;52.818;6.516;2022-07-03T16:16:26;1.55;;;1.40;;
60722;SDS011;46574;52.818;6.516;2022-07-03T16:18:53;1.90;;;1.45;;
60722;SDS011;46574;52.818;6.516;2022-07-03T16:21:20;1.60;;;1.20;;
60722;SDS011;46574;52.818;6.516;2022-07-03T16:23:48;1.20;;;1.10;;